Time;durP1;ratioP1;P1;durP2;ratioP2;P2;SDS_P1;SDS_P2;PMS_P1;PMS_P2;Temp;Humidity;BMP_temperature;BMP_pressure;BME280_temperature;BME280_humidity;BME280_pressure;Samples;Min_cycle;Max_cycle;Signal;HPM_P1;HPM_P2
2023/07/03 00:01:03;;;;;;;8.73;2.27;;;18.50;76.90;;;;;;5034429;28;20268;-76
2023/07/03 00:03:28;;;;;;;11.50;4.80;;;18.50;77.10;;;;;;5035342;28;20726;-76
2023/07/03 00:05:54;;;;;;;10.30;4.10;;;18.40;77.00;;;;;;5053285;28;20173;-76
2023/07/03 00:08:20;;;;;;;8.60;4.17;;;18.40;77.20;;;;;;5034990;28;20165;-76
2023/07/03 00:10:46;;;;;;;8.53;2.90;;;18.40;77.30;;;;;;5034725;28;20180;-76
2023/07/03 00:13:11;;;;;;;12.97;2.73;;;18.30;77.30;;;;;;5017918;28;20205;-76
2023/07/03 00:15:37;;;;;;;7.10;2.30;;;18.30;77.50;;;;;;5053032;28;20303;-75
2023/07/03 00:18:03;;;;;;;8.60;2.03;;;18.30;77.60;;;;;;5052656;28;20165;-75
2023/07/03 00:20:29;;;;;;;7.30;1.80;;;18.30;77.70;;;;;;5017212;28;20173;-75
2023/07/03 00:22:56;;;;;;;9.00;2.40;;;18.20;77.70;;;;;;5034193;28;20603;-76
2023/07/03 00:25:22;;;;;;;10.23;2.57;;;18.20;77.90;;;;;;5052899;28;21161;-75
2023/07/03 00:27:48;;;;;;;6.90;1.60;;;18.20;78.20;;;;;;5052554;28;20586;-76
2023/07/03 00:30:15;;;;;;;5.90;2.10;;;18.10;78.10;;;;;;5018473;28;20586;-76
2023/07/03 00:32:41;;;;;;;6.20;1.90;;;18.10;78.30;;;;;;5051699;28;20627;-76
2023/07/03 00:35:07;;;;;;;10.97;2.80;;;18.10;78.40;;;;;;5032578;28;21014;-76
2023/07/03 00:37:33;;;;;;;6.10;2.03;;;18.00;78.50;;;;;;5019951;28;20587;-76
2023/07/03 00:39:59;;;;;;;4.60;1.67;;;18.00;78.80;;;;;;5034420;28;20645;-76
2023/07/03 00:42:27;;;;;;;8.30;2.10;;;18.00;79.00;;;;;;5017391;28;20579;-75
2023/07/03 00:44:52;;;;;;;6.03;2.37;;;17.90;79.10;;;;;;5034017;28;20660;-75
2023/07/03 00:47:19;;;;;;;7.13;2.13;;;17.90;79.20;;;;;;5034340;28;20621;-75
2023/07/03 00:49:44;;;;;;;7.10;2.30;;;17.90;79.40;;;;;;5017562;28;20181;-75
2023/07/03 00:52:12;;;;;;;8.40;2.40;;;17.80;79.50;;;;;;5033700;28;20619;-75
2023/07/03 00:54:38;;;;;;;7.50;2.27;;;17.80;79.70;;;;;;5033957;28;20195;-75
2023/07/03 00:57:05;;;;;;;6.97;1.60;;;17.80;80.00;;;;;;5052323;28;20588;-75
2023/07/03 00:59:33;;;;;;;7.60;1.80;;;17.70;80.20;;;;;;5051756;28;20559;-76
2023/07/03 01:02:10;;;;;;;9.77;2.70;;;17.70;80.40;;;;;;5033129;28;20607;-75
2023/07/03 01:04:42;;;;;;;5.60;1.83;;;17.60;80.90;;;;;;5051621;28;20611;-75
2023/07/03 01:07:13;;;;;;;8.67;2.00;;;17.60;80.80;;;;;;5017865;28;20645;-75
2023/07/03 01:09:47;;;;;;;6.53;1.60;;;17.60;81.10;;;;;;5052134;28;20583;-76
2023/07/03 01:12:13;;;;;;;6.17;1.90;;;17.50;81.40;;;;;;5033003;28;20634;-75
2023/07/03 01:14:42;;;;;;;5.80;2.17;;;17.50;81.40;;;;;;5007321;28;20639;-75
2023/07/03 01:17:09;;;;;;;8.93;2.20;;;17.50;81.70;;;;;;5051719;28;20907;-76
2023/07/03 01:19:40;;;;;;;7.33;2.07;;;17.40;82.10;;;;;;5017572;28;20583;-75
2023/07/03 01:22:42;;;;;;;14.50;2.03;;;17.40;82.30;;;;;;5000159;28;20988;-76
2023/07/03 01:25:12;;;;;;;5.93;1.70;;;17.30;83.10;;;;;;5017485;28;20575;-75
2023/07/03 01:27:42;;;;;;;15.20;3.03;;;17.30;82.80;;;;;;5033737;28;20918;-75
2023/07/03 01:30:13;;;;;;;11.93;3.20;;;17.30;83.40;;;;;;5017158;28;20576;-75
2023/07/03 01:32:39;;;;;;;9.00;2.20;;;17.20;83.80;;;;;;5032247;28;21103;-75
2023/07/03 01:35:08;;;;;;;6.87;2.10;;;17.20;83.90;;;;;;5033661;28;20932;-75
2023/07/03 01:37:38;;;;;;;10.30;3.03;;;17.20;84.20;;;;;;5016733;28;20695;-75
2023/07/03 01:40:06;;;;;;;10.33;2.40;;;17.20;84.70;;;;;;5051482;28;20574;-75
2023/07/03 01:42:35;;;;;;;9.90;2.90;;;17.10;84.90;;;;;;5015767;28;20588;-75
2023/07/03 01:45:01;;;;;;;6.63;2.03;;;17.10;85.40;;;;;;5016927;28;20603;-75
2023/07/03 01:47:27;;;;;;;10.37;2.30;;;17.10;86.10;;;;;;5016592;28;20598;-75
2023/07/03 01:49:53;;;;;;;11.20;2.83;;;17.10;86.30;;;;;;5016849;28;20587;-75
2023/07/03 01:52:23;;;;;;;10.20;2.20;;;17.10;87.00;;;;;;5015757;28;20205;-76
2023/07/03 01:54:59;;;;;;;7.70;2.20;;;17.00;86.80;;;;;;5033293;28;20188;-75
2023/07/03 01:57:47;;;;;;;9.20;2.60;;;17.00;87.80;;;;;;5016773;28;20621;-75
2023/07/03 02:00:19;;;;;;;9.50;2.53;;;17.00;88.20;;;;;;5016778;28;20591;-75
2023/07/03 02:02:53;;;;;;;9.57;2.37;;;17.00;87.90;;;;;;5032333;28;20628;-76
2023/07/03 02:05:26;;;;;;;6.90;1.97;;;16.90;88.50;;;;;;5016432;28;20592;-75
2023/07/03 02:07:56;;;;;;;9.80;2.67;;;16.90;88.70;;;;;;5033293;28;20691;-75
2023/07/03 02:10:22;;;;;;;8.90;2.40;;;16.90;88.90;;;;;;5032807;28;20598;-76
2023/07/03 02:12:50;;;;;;;9.70;2.23;;;16.90;89.00;;;;;;5015795;28;20670;-76
2023/07/03 02:15:19;;;;;;;11.80;2.40;;;16.80;89.30;;;;;;5032716;28;20586;-76
2023/07/03 02:17:46;;;;;;;6.00;1.90;;;16.80;89.70;;;;;;5032614;28;20929;-75
2023/07/03 02:20:14;;;;;;;9.57;2.23;;;16.80;90.00;;;;;;5015686;28;20591;-76
2023/07/03 02:22:41;;;;;;;9.87;2.67;;;16.70;90.10;;;;;;5031997;28;20180;-75
2023/07/03 02:25:08;;;;;;;8.97;2.40;;;16.70;90.30;;;;;;5016082;28;20584;-76
2023/07/03 02:27:34;;;;;;;6.37;1.70;;;16.70;90.40;;;;;;5050727;28;20571;-75
2023/07/03 02:30:01;;;;;;;8.17;2.80;;;16.60;90.60;;;;;;5032371;28;20574;-75
2023/07/03 02:32:34;;;;;;;9.90;2.20;;;16.60;90.70;;;;;;5031852;28;20635;-75
2023/07/03 02:35:00;;;;;;;13.33;2.20;;;16.50;91.00;;;;;;5032282;28;20315;-75
2023/07/03 02:37:27;;;;;;;11.20;2.27;;;16.50;91.10;;;;;;5032556;28;20584;-75
2023/07/03 02:39:54;;;;;;;7.37;2.03;;;16.50;91.30;;;;;;5016231;28;20633;-75
2023/07/03 02:42:19;;;;;;;8.90;2.70;;;16.40;91.40;;;;;;5014795;28;20973;-75
2023/07/03 02:44:45;;;;;;;13.03;3.13;;;16.40;91.50;;;;;;5015481;28;20278;-75
2023/07/03 02:47:11;;;;;;;9.07;3.10;;;16.40;91.80;;;;;;5032329;28;20614;-75
2023/07/03 02:49:37;;;;;;;7.80;2.50;;;16.30;91.90;;;;;;4999864;28;20241;-75
2023/07/03 02:52:05;;;;;;;7.80;2.00;;;16.30;92.10;;;;;;5014884;28;20641;-75
2023/07/03 02:54:33;;;;;;;11.13;2.20;;;16.30;92.40;;;;;;5032580;28;20952;-75
2023/07/03 02:56:59;;;;;;;10.13;2.40;;;16.30;92.50;;;;;;5015641;28;20591;-75
2023/07/03 02:59:25;;;;;;;15.37;3.10;;;16.20;92.60;;;;;;5015853;28;20591;-75
2023/07/03 03:01:51;;;;;;;6.97;2.57;;;16.20;92.80;;;;;;5031130;28;20599;-76
2023/07/03 03:04:17;;;;;;;10.20;2.17;;;16.20;93.10;;;;;;5015872;28;20703;-76
2023/07/03 03:06:44;;;;;;;5.57;2.80;;;16.20;93.20;;;;;;5016066;28;20654;-76
2023/07/03 03:09:10;;;;;;;8.73;2.20;;;16.20;93.50;;;;;;5032672;28;20675;-76
2023/07/03 03:11:37;;;;;;;9.73;2.13;;;16.20;93.70;;;;;;5016074;28;20697;-76
2023/07/03 03:14:04;;;;;;;9.40;2.70;;;16.20;93.80;;;;;;5032299;28;20609;-76
2023/07/03 03:16:31;;;;;;;10.13;3.23;;;16.20;94.40;;;;;;5032841;28;20619;-76
2023/07/03 03:18:57;;;;;;;8.90;2.27;;;16.20;94.20;;;;;;5015182;28;20607;-76
2023/07/03 03:21:22;;;;;;;12.57;2.83;;;16.20;94.40;;;;;;5031684;28;20173;-76
2023/07/03 03:23:48;;;;;;;5.33;1.70;;;16.20;94.60;;;;;;5015662;28;20193;-76
2023/07/03 03:26:14;;;;;;;7.63;2.23;;;16.30;94.80;;;;;;5032177;28;20169;-76
2023/07/03 03:28:40;;;;;;;11.80;2.67;;;16.30;94.90;;;;;;5031544;28;20177;-75
2023/07/03 03:31:07;;;;;;;8.73;2.10;;;16.40;95.10;;;;;;5014628;28;20173;-75
2023/07/03 03:33:37;;;;;;;6.13;1.70;;;16.40;95.30;;;;;;5015174;28;20654;-75
2023/07/03 03:36:03;;;;;;;11.13;3.13;;;16.40;95.30;;;;;;5050156;28;20614;-75
2023/07/03 03:38:29;;;;;;;9.37;2.50;;;16.50;95.50;;;;;;5015652;28;20219;-76
2023/07/03 03:41:03;;;;;;;11.47;2.80;;;16.50;95.60;;;;;;5015288;28;20645;-76
2023/07/03 03:43:32;;;;;;;8.37;2.90;;;16.50;95.80;;;;;;5015765;28;20195;-76
2023/07/03 03:46:02;;;;;;;11.53;2.63;;;16.60;95.70;;;;;;5015188;28;21181;-76
2023/07/03 03:48:30;;;;;;;10.30;2.53;;;16.60;96.00;;;;;;5015286;28;20580;-76
2023/07/03 03:50:58;;;;;;;7.30;2.03;;;16.60;96.00;;;;;;5014853;28;20606;-76
2023/07/03 03:53:24;;;;;;;6.50;1.93;;;16.70;96.10;;;;;;5014664;28;21207;-76
2023/07/03 03:55:51;;;;;;;11.63;2.07;;;16.70;96.10;;;;;;5032876;28;20560;-76
2023/07/03 03:58:18;;;;;;;10.73;2.40;;;16.70;96.20;;;;;;5035235;28;20575;-76
2023/07/03 04:00:44;;;;;;;11.70;3.30;;;16.80;96.40;;;;;;5001686;28;20583;-76
2023/07/03 04:03:10;;;;;;;7.80;2.27;;;16.80;96.40;;;;;;5018633;28;20609;-76
2023/07/03 04:05:38;;;;;;;7.40;1.97;;;16.80;96.50;;;;;;5035253;28;20935;-76
2023/07/03 04:08:04;;;;;;;10.00;1.97;;;16.90;96.60;;;;;;5035135;28;20674;-76
2023/07/03 04:10:30;;;;;;;7.00;3.70;;;16.90;96.70;;;;;;5034495;28;20671;-76
2023/07/03 04:12:55;;;;;;;10.33;2.60;;;16.90;96.90;;;;;;5034754;28;20220;-75
2023/07/03 04:15:22;;;;;;;6.80;2.60;;;17.00;97.20;;;;;;5034595;28;20177;-76
2023/07/03 04:17:48;;;;;;;10.07;2.30;;;17.00;97.70;;;;;;5034872;28;20261;-76
2023/07/03 04:20:15;;;;;;;11.83;2.77;;;17.10;97.50;;;;;;5053173;28;20604;-76
2023/07/03 04:22:42;;;;;;;8.07;2.10;;;17.20;97.50;;;;;;5033695;28;20590;-76
2023/07/03 04:25:08;;;;;;;12.63;3.77;;;17.20;97.60;;;;;;5034913;28;20992;-76
2023/07/03 04:27:34;;;;;;;7.63;2.20;;;17.20;97.70;;;;;;5034468;28;20575;-76
2023/07/03 04:30:01;;;;;;;9.63;2.70;;;17.30;97.70;;;;;;5018237;28;20598;-76
2023/07/03 04:32:27;;;;;;;7.83;2.00;;;17.40;97.80;;;;;;5051424;28;20627;-76
2023/07/03 04:34:53;;;;;;;11.03;2.50;;;17.40;97.80;;;;;;5034679;28;21171;-76
2023/07/03 04:37:19;;;;;;;9.80;2.53;;;17.50;98.20;;;;;;5017546;28;20685;-76
2023/07/03 04:39:44;;;;;;;7.50;2.40;;;17.60;98.00;;;;;;5052483;28;20173;-76
2023/07/03 04:42:13;;;;;;;9.13;2.50;;;17.60;98.00;;;;;;5051232;28;20264;-76
2023/07/03 04:44:41;;;;;;;10.60;3.10;;;17.60;98.10;;;;;;5052427;28;20200;-76
2023/07/03 04:47:08;;;;;;;8.30;2.30;;;17.70;98.20;;;;;;5034218;28;20907;-75
2023/07/03 04:49:34;;;;;;;8.20;2.03;;;17.80;98.20;;;;;;5034917;28;20571;-75
2023/07/03 04:52:00;;;;;;;14.50;2.60;;;17.80;98.30;;;;;;5033111;28;20642;-75
2023/07/03 04:54:29;;;;;;;10.03;2.97;;;17.90;98.50;;;;;;5034267;28;20619;-75
2023/07/03 04:56:56;;;;;;;11.93;2.60;;;17.90;98.50;;;;;;5051986;28;20603;-75
2023/07/03 04:59:21;;;;;;;12.90;3.33;;;18.00;98.60;;;;;;5034019;28;20674;-75
2023/07/03 05:01:47;;;;;;;15.17;2.70;;;18.00;98.60;;;;;;5017063;28;20710;-75
2023/07/03 05:04:13;;;;;;;10.43;3.13;;;18.00;98.60;;;;;;5017279;28;20203;-75
2023/07/03 05:06:39;;;;;;;7.00;2.50;;;18.10;98.80;;;;;;5017011;28;20235;-75
2023/07/03 05:09:05;;;;;;;8.43;2.17;;;18.10;98.70;;;;;;5017186;28;20184;-75
2023/07/03 05:11:34;;;;;;;8.27;2.90;;;18.20;98.80;;;;;;5050921;28;21186;-75
2023/07/03 05:14:00;;;;;;;8.07;2.60;;;18.20;99.00;;;;;;5051533;28;20599;-75
2023/07/03 05:16:26;;;;;;;7.50;2.80;;;18.30;98.90;;;;;;5034176;28;20927;-75
2023/07/03 05:18:52;;;;;;;9.73;2.87;;;18.30;99.00;;;;;;5033670;28;20666;-75
2023/07/03 05:21:18;;;;;;;10.20;2.30;;;18.30;99.10;;;;;;5050788;28;20180;-75
2023/07/03 05:23:44;;;;;;;10.23;3.83;;;18.40;99.20;;;;;;5051242;28;20195;-75
2023/07/03 05:26:10;;;;;;;13.50;3.63;;;18.40;99.30;;;;;;5034676;28;20576;-75
2023/07/03 05:28:37;;;;;;;13.23;2.90;;;18.50;99.50;;;;;;5050986;28;20665;-76
2023/07/03 05:31:03;;;;;;;8.70;2.70;;;18.50;99.70;;;;;;5033152;28;20812;-75
2023/07/03 05:33:29;;;;;;;9.17;3.17;;;18.60;99.70;;;;;;5032962;28;20639;-75
2023/07/03 05:36:00;;;;;;;8.43;2.80;;;18.70;99.80;;;;;;5016823;28;20584;-75
2023/07/03 05:38:27;;;;;;;10.50;2.47;;;18.70;99.80;;;;;;5051323;28;20580;-75
2023/07/03 05:40:54;;;;;;;6.27;2.27;;;18.80;99.80;;;;;;5050571;28;20635;-75
2023/07/03 05:43:20;;;;;;;8.60;2.60;;;18.80;99.80;;;;;;5032767;28;21206;-75
2023/07/03 05:45:48;;;;;;;9.40;2.80;;;18.90;99.90;;;;;;5033163;28;20583;-75
2023/07/03 05:48:14;;;;;;;8.23;2.10;;;19.00;99.90;;;;;;5033266;28;20579;-75
2023/07/03 05:50:40;;;;;;;11.00;2.50;;;19.00;99.90;;;;;;5032234;28;20970;-75
2023/07/03 05:53:08;;;;;;;5.67;2.63;;;19.10;99.90;;;;;;5032914;28;20666;-75
2023/07/03 05:55:33;;;;;;;13.37;3.33;;;19.10;99.90;;;;;;5050806;28;20594;-75
2023/07/03 05:57:59;;;;;;;8.77;2.97;;;19.20;99.90;;;;;;5033489;28;20580;-75
2023/07/03 06:00:27;;;;;;;9.47;2.27;;;19.30;99.90;;;;;;5032872;28;20267;-75
2023/07/03 06:02:54;;;;;;;10.80;2.60;;;19.30;99.90;;;;;;5032303;28;20181;-75
2023/07/03 06:05:21;;;;;;;6.37;2.63;;;19.50;99.90;;;;;;5032534;28;20580;-75
2023/07/03 06:07:47;;;;;;;10.60;2.70;;;19.50;99.90;;;;;;5033050;28;20583;-75
2023/07/03 06:10:13;;;;;;;9.30;2.83;;;19.60;99.90;;;;;;5050546;28;20659;-75
2023/07/03 06:12:40;;;;;;;9.23;2.33;;;19.70;99.90;;;;;;5048031;28;20630;-74
2023/07/03 06:15:06;;;;;;;11.33;2.93;;;19.70;99.90;;;;;;5014996;28;20720;-74
2023/07/03 06:17:32;;;;;;;7.17;2.20;;;19.80;99.90;;;;;;5032273;28;20591;-74
2023/07/03 06:19:58;;;;;;;8.87;2.60;;;19.90;99.90;;;;;;5015606;28;20699;-74
2023/07/03 06:22:24;;;;;;;11.70;2.70;;;19.90;99.90;;;;;;5031125;28;20590;-74
2023/07/03 06:24:50;;;;;;;5.37;1.73;;;20.00;99.90;;;;;;5032329;28;20197;-74
2023/07/03 06:27:16;;;;;;;6.93;1.87;;;20.10;99.90;;;;;;5049560;28;20594;-74
2023/07/03 06:29:42;;;;;;;10.73;2.33;;;20.10;99.80;;;;;;5031839;28;20691;-74
2023/07/03 06:32:09;;;;;;;10.23;2.40;;;20.20;99.80;;;;;;5030232;28;20643;-74
2023/07/03 06:34:35;;;;;;;7.00;2.33;;;20.30;99.80;;;;;;5031628;28;20614;-74
2023/07/03 06:37:05;;;;;;;8.23;3.10;;;20.30;99.70;;;;;;5032126;28;20607;-74
2023/07/03 06:39:31;;;;;;;9.53;2.70;;;20.40;99.60;;;;;;5036141;28;20614;-74
2023/07/03 06:41:57;;;;;;;9.13;3.00;;;20.40;99.50;;;;;;5049018;28;20610;-74
2023/07/03 06:44:23;;;;;;;10.60;3.20;;;20.40;99.30;;;;;;5049860;28;20646;-75
2023/07/03 06:46:50;;;;;;;8.63;2.50;;;20.40;99.30;;;;;;5015040;28;20596;-74
2023/07/03 06:49:17;;;;;;;8.73;2.30;;;20.50;99.20;;;;;;5015324;28;20220;-75
2023/07/03 06:51:42;;;;;;;6.87;2.70;;;20.50;99.20;;;;;;5014371;28;20624;-74
2023/07/03 06:54:08;;;;;;;7.30;2.63;;;20.50;99.10;;;;;;5049079;28;20619;-75
2023/07/03 06:56:34;;;;;;;9.30;2.90;;;20.50;99.10;;;;;;5030893;28;20173;-75
2023/07/03 06:59:00;;;;;;;8.87;3.37;;;20.60;99.20;;;;;;5031345;28;20583;-75
2023/07/03 07:01:30;;;;;;;9.70;3.10;;;20.60;99.10;;;;;;5030960;28;20599;-74
2023/07/03 07:03:56;;;;;;;7.50;2.70;;;20.70;99.20;;;;;;5048450;28;20637;-74
2023/07/03 07:06:24;;;;;;;7.33;2.80;;;20.80;99.30;;;;;;5015503;28;20595;-75
2023/07/03 07:08:51;;;;;;;8.90;3.83;;;20.90;99.30;;;;;;5031852;28;20692;-75
2023/07/03 07:11:19;;;;;;;7.37;2.60;;;21.00;99.30;;;;;;5030908;28;20614;-74
2023/07/03 07:13:47;;;;;;;9.53;3.10;;;21.20;99.40;;;;;;5031539;28;20612;-75
2023/07/03 07:16:13;;;;;;;9.97;3.70;;;21.30;99.40;;;;;;5017654;28;20587;-75
2023/07/03 07:18:40;;;;;;;6.93;3.17;;;21.50;99.40;;;;;;5049711;28;20975;-74
2023/07/03 07:21:05;;;;;;;8.57;2.50;;;21.60;99.20;;;;;;5030782;28;20579;-75
2023/07/03 07:23:31;;;;;;;8.30;3.23;;;21.80;99.10;;;;;;5031018;28;21150;-75
2023/07/03 07:25:57;;;;;;;10.47;3.70;;;21.90;98.90;;;;;;5014395;28;20184;-74
2023/07/03 07:28:22;;;;;;;8.07;3.07;;;22.00;98.60;;;;;;5049690;28;20176;-75
2023/07/03 07:30:49;;;;;;;9.80;2.60;;;22.20;98.60;;;;;;5033556;28;20176;-75
2023/07/03 07:33:15;;;;;;;10.67;3.40;;;22.40;98.60;;;;;;5035220;28;20216;-75
2023/07/03 07:35:42;;;;;;;10.97;3.50;;;22.50;98.50;;;;;;5053397;28;20587;-75
2023/07/03 07:38:08;;;;;;;9.83;2.90;;;22.70;98.50;;;;;;5035574;28;20614;-75
2023/07/03 07:40:33;;;;;;;6.43;2.33;;;22.90;98.20;;;;;;5018456;28;20941;-75
2023/07/03 07:42:59;;;;;;;9.73;3.50;;;23.10;98.00;;;;;;5052424;28;20200;-75
2023/07/03 07:45:25;;;;;;;7.00;2.80;;;23.30;97.60;;;;;;5018803;28;20173;-75
2023/07/03 07:47:51;;;;;;;9.50;3.00;;;23.40;97.50;;;;;;5053057;28;20184;-75
2023/07/03 07:50:17;;;;;;;8.23;3.40;;;23.60;97.50;;;;;;5019180;28;20176;-75
2023/07/03 07:52:43;;;;;;;12.70;4.30;;;23.90;97.20;;;;;;5036591;28;20626;-75
2023/07/03 07:55:09;;;;;;;7.10;3.13;;;24.10;96.80;;;;;;5018855;28;20602;-74
2023/07/03 07:57:35;;;;;;;8.00;2.80;;;24.30;96.50;;;;;;5034963;28;20177;-75
2023/07/03 08:00:02;;;;;;;5.13;3.00;;;24.60;96.00;;;;;;5034993;28;20578;-75
2023/07/03 08:02:37;;;;;;;7.27;2.30;;;25.00;95.90;;;;;;5033553;28;20691;-75
2023/07/03 08:05:04;;;;;;;7.10;2.70;;;25.40;95.50;;;;;;5052983;28;20618;-75
2023/07/03 08:07:30;;;;;;;7.33;2.00;;;25.70;94.80;;;;;;5052859;28;20176;-75
2023/07/03 08:09:56;;;;;;;5.27;1.97;;;25.90;93.80;;;;;;5018187;28;20598;-75
2023/07/03 08:12:22;;;;;;;6.53;2.57;;;26.10;93.10;;;;;;5051881;28;20212;-75
2023/07/03 08:14:48;;;;;;;5.53;1.90;;;26.30;92.00;;;;;;5033925;28;20607;-75
2023/07/03 08:17:13;;;;;;;5.07;1.93;;;26.60;91.90;;;;;;5052790;28;20227;-75
2023/07/03 08:19:39;;;;;;;8.57;2.47;;;26.90;91.20;;;;;;5034358;28;20579;-75
2023/07/03 08:22:05;;;;;;;6.00;2.00;;;27.00;90.10;;;;;;5051802;28;20173;-75
2023/07/03 08:24:31;;;;;;;7.10;2.80;;;27.10;89.10;;;;;;5052113;28;20196;-76
2023/07/03 08:26:57;;;;;;;5.53;2.10;;;27.30;87.70;;;;;;5052553;28;20178;-75
2023/07/03 08:29:23;;;;;;;6.90;2.20;;;27.40;87.10;;;;;;5036396;28;20567;-75
2023/07/03 08:31:48;;;;;;;6.00;2.10;;;28.00;88.20;;;;;;5033673;28;20205;-75
2023/07/03 08:34:14;;;;;;;7.13;2.50;;;28.50;87.00;;;;;;5017651;28;20254;-75
2023/07/03 08:36:40;;;;;;;5.57;2.00;;;29.00;85.70;;;;;;5033950;28;20181;-75
2023/07/03 08:39:06;;;;;;;5.87;2.47;;;29.40;83.60;;;;;;5051669;28;21123;-75
2023/07/03 08:41:40;;;;;;;4.93;1.33;;;29.60;81.30;;;;;;5015952;28;20206;-75
2023/07/03 08:44:07;;;;;;;7.50;2.60;;;29.70;77.70;;;;;;5034168;28;20196;-75
2023/07/03 08:46:35;;;;;;;10.03;2.80;;;29.70;75.80;;;;;;5052031;28;20964;-75
2023/07/03 08:49:04;;;;;;;4.37;2.07;;;29.80;74.40;;;;;;5029842;23;20996;-76
2023/07/03 08:51:34;;;;;;;5.57;2.00;;;29.80;72.70;;;;;;5049527;28;20610;-77
2023/07/03 08:54:06;;;;;;;4.70;1.60;;;29.80;69.90;;;;;;5052123;28;20599;-76
2023/07/03 08:56:33;;;;;;;10.20;2.73;;;29.60;68.60;;;;;;5051243;28;20953;-77
2023/07/03 08:59:02;;;;;;;4.10;1.73;;;29.40;67.60;;;;;;5044962;28;21254;-77
2023/07/03 09:02:03;;;;;;;9.03;2.70;;;29.10;66.70;;;;;;5031331;28;20990;-77
2023/07/03 09:04:35;;;;;;;5.80;1.73;;;29.00;67.30;;;;;;5030736;28;20592;-76
2023/07/03 09:07:28;;;;;;;8.43;2.00;;;29.00;66.40;;;;;;5031909;28;20579;-76
2023/07/03 09:10:12;;;;;;;6.73;2.03;;;28.60;63.60;;;;;;5013832;28;20624;-76
2023/07/03 09:12:49;;;;;;;6.57;2.00;;;28.30;62.40;;;;;;5029093;28;20619;-76
2023/07/03 09:15:18;;;;;;;5.67;1.47;;;28.30;64.60;;;;;;5032148;28;21131;-77
2023/07/03 09:17:45;;;;;;;5.47;2.00;;;28.30;64.00;;;;;;5031672;28;21089;-77
2023/07/03 09:20:14;;;;;;;8.50;2.53;;;28.40;65.40;;;;;;5031548;28;20962;-76
2023/07/03 09:23:02;;;;;;;5.07;2.33;;;28.40;63.30;;;;;;5028786;28;20584;-77
2023/07/03 09:25:39;;;;;;;4.43;2.30;;;28.70;62.00;;;;;;4997230;28;20635;-77
2023/07/03 09:28:09;;;;;;;7.07;2.73;;;29.10;63.20;;;;;;5030918;28;20583;-77
2023/07/03 09:35:22;;;;;;;;;;;;;;;;;;;;;
2023/07/03 09:38:35;;;;;;;8.17;2.17;;;29.00;58.00;;;;;;4982989;28;20674;-77
2023/07/03 09:41:04;;;;;;;5.60;2.03;;;28.50;59.00;;;;;;5028995;28;20674;-75
2023/07/03 09:43:31;;;;;;;8.60;2.90;;;28.20;58.60;;;;;;5013051;28;20758;-75
2023/07/03 09:46:19;;;;;;;4.80;1.67;;;28.00;58.50;;;;;;5030851;28;20583;-75
2023/07/03 09:48:45;;;;;;;6.37;2.03;;;27.70;57.10;;;;;;5030989;28;20648;-76
2023/07/03 09:51:20;;;;;;;7.63;3.33;;;27.50;58.70;;;;;;5029959;28;20714;-77
2023/07/03 09:53:46;;;;;;;6.40;2.30;;;27.30;58.20;;;;;;5030510;28;20161;-77
2023/07/03 09:56:20;;;;;;;5.40;2.20;;;27.20;58.60;;;;;;5030518;28;20572;-77
2023/07/03 09:58:49;;;;;;;7.87;2.60;;;27.10;57.50;;;;;;5029082;28;20197;-76
2023/07/03 10:01:17;;;;;;;7.67;2.30;;;26.80;57.50;;;;;;5029828;28;20568;-76
2023/07/03 10:03:43;;;;;;;6.07;2.77;;;26.70;57.40;;;;;;5030503;28;20584;-76
2023/07/03 10:06:15;;;;;;;4.80;2.20;;;26.40;57.40;;;;;;5030765;28;21142;-77
2023/07/03 10:08:46;;;;;;;6.80;1.80;;;26.30;57.40;;;;;;5034254;28;20197;-76
2023/07/03 10:11:13;;;;;;;7.60;2.27;;;26.00;57.60;;;;;;5028467;28;20595;-76
2023/07/03 10:13:46;;;;;;;6.23;2.97;;;25.80;57.80;;;;;;5027920;28;20648;-75
2023/07/03 10:16:15;;;;;;;6.90;2.10;;;25.60;57.80;;;;;;5030790;28;20576;-76
2023/07/03 10:18:48;;;;;;;6.43;2.63;;;25.50;58.20;;;;;;5028929;28;21107;-76
2023/07/03 10:21:17;;;;;;;4.20;1.87;;;25.50;58.70;;;;;;5028509;28;20574;-76
2023/07/03 10:23:50;;;;;;;4.37;1.90;;;25.70;59.80;;;;;;5012269;28;20600;-76
2023/07/03 10:26:24;;;;;;;6.80;2.30;;;26.20;62.40;;;;;;5028976;28;20580;-77
2023/07/03 10:28:56;;;;;;;6.10;2.60;;;27.10;63.80;;;;;;5028687;28;20623;-77
2023/07/03 10:31:25;;;;;;;4.93;2.40;;;28.10;65.50;;;;;;5029716;28;20607;-76
2023/07/03 10:34:04;;;;;;;7.97;3.00;;;28.90;62.90;;;;;;5028660;28;20595;-77
2023/07/03 10:36:34;;;;;;;6.73;3.30;;;29.20;59.50;;;;;;5029626;28;20576;-77
2023/07/03 10:39:13;;;;;;;7.80;2.60;;;29.30;58.70;;;;;;5028735;28;20604;-76
2023/07/03 10:41:44;;;;;;;6.20;2.70;;;29.20;57.30;;;;;;5028114;28;20641;-76
2023/07/03 10:44:22;;;;;;;4.80;2.10;;;29.00;56.90;;;;;;5030284;28;20605;-76
2023/07/03 10:46:54;;;;;;;3.90;1.73;;;28.60;56.10;;;;;;5029721;28;20683;-76
2023/07/03 10:49:32;;;;;;;5.53;1.70;;;28.20;55.80;;;;;;5028942;28;20624;-77
2023/07/03 10:52:08;;;;;;;6.70;2.47;;;27.80;55.90;;;;;;5028007;28;20592;-78
2023/07/03 10:54:40;;;;;;;7.17;3.33;;;27.50;56.30;;;;;;5029234;28;20568;-77
2023/07/03 10:57:11;;;;;;;6.57;3.00;;;27.40;57.00;;;;;;5012120;28;20568;-77
2023/07/03 10:59:43;;;;;;;7.80;2.73;;;27.50;58.00;;;;;;5028100;28;20654;-77
2023/07/03 11:02:18;;;;;;;6.80;3.00;;;27.60;57.70;;;;;;5027128;28;20723;-77
2023/07/03 11:05:20;;;;;;;7.10;3.03;;;27.60;57.60;;;;;;5030279;28;20595;-77
2023/07/03 11:07:55;;;;;;;6.97;3.53;;;27.60;57.30;;;;;;5034004;28;20606;-77
2023/07/03 11:10:29;;;;;;;6.97;4.40;;;27.50;56.70;;;;;;5033829;28;20623;-77
2023/07/03 11:13:00;;;;;;;6.30;3.20;;;27.30;56.50;;;;;;5015579;28;20579;-77
2023/07/03 11:15:35;;;;;;;6.57;2.63;;;27.10;56.50;;;;;;5034004;28;20944;-76
2023/07/03 11:18:31;;;;;;;5.00;2.40;;;27.00;56.60;;;;;;5032588;28;20603;-76
2023/07/03 11:21:29;;;;;;;14.20;3.63;;;26.70;56.20;;;;;;5036601;28;20588;-76
2023/07/03 11:24:12;;;;;;;6.93;2.50;;;26.60;56.50;;;;;;4973036;28;20604;-77
2023/07/03 11:26:40;;;;;;;7.03;3.33;;;26.60;56.40;;;;;;5032415;28;20638;-75
2023/07/03 11:29:09;;;;;;;8.90;2.27;;;26.60;56.50;;;;;;5032252;28;20664;-77
2023/07/03 11:31:38;;;;;;;7.43;2.87;;;26.50;56.10;;;;;;5031737;28;21113;-76
2023/07/03 11:34:06;;;;;;;5.37;2.50;;;26.40;55.90;;;;;;5014780;28;20602;-77
2023/07/03 11:36:45;;;;;;;7.10;2.97;;;26.30;55.80;;;;;;5032385;28;20728;-78
2023/07/03 11:39:15;;;;;;;8.47;3.60;;;26.20;55.80;;;;;;5031601;28;20662;-77
2023/07/03 11:41:49;;;;;;;5.40;2.57;;;26.10;55.80;;;;;;5014761;28;20674;-76
2023/07/03 11:44:27;;;;;;;6.93;2.43;;;25.90;55.70;;;;;;5032989;28;20596;-76
2023/07/03 11:47:27;;;;;;;3.60;1.73;;;25.80;55.90;;;;;;5032318;28;20576;-76
2023/07/03 11:50:03;;;;;;;5.87;3.07;;;25.70;56.40;;;;;;5015379;28;20701;-79
2023/07/03 11:52:35;;;;;;;6.47;3.60;;;25.80;57.40;;;;;;5031068;28;20695;-76
2023/07/03 11:55:15;;;;;;;5.50;3.67;;;25.90;57.00;;;;;;5031981;28;20824;-75
2023/07/03 11:57:44;;;;;;;6.07;3.47;;;26.00;56.80;;;;;;5032422;28;20614;-77
2023/07/03 12:00:15;;;;;;;10.43;3.07;;;26.20;57.60;;;;;;5031535;28;20673;-76
2023/07/03 12:03:11;;;;;;;7.47;2.90;;;26.50;57.70;;;;;;5032460;28;20735;-76
2023/07/03 12:05:49;;;;;;;5.07;2.30;;;26.70;58.10;;;;;;5022501;28;20589;-77
2023/07/03 12:08:17;;;;;;;7.83;2.70;;;27.20;58.10;;;;;;5031545;28;20576;-76
2023/07/03 12:10:49;;;;;;;8.60;2.80;;;27.60;58.90;;;;;;5031180;28;20609;-76
2023/07/03 12:13:35;;;;;;;8.70;2.97;;;27.90;57.20;;;;;;5030326;28;20640;-76
2023/07/03 12:16:13;;;;;;;6.50;2.70;;;28.20;56.50;;;;;;5029183;28;20587;-77
2023/07/03 12:18:39;;;;;;;6.67;2.60;;;28.40;55.60;;;;;;5030916;28;20592;-76
2023/07/03 12:21:05;;;;;;;4.90;2.20;;;28.50;55.70;;;;;;5030413;28;20637;-78
2023/07/03 12:23:33;;;;;;;5.07;2.57;;;28.60;54.80;;;;;;5031367;28;20212;-77
2023/07/03 12:26:08;;;;;;;4.53;1.70;;;28.50;54.10;;;;;;5031334;28;20607;-76
2023/07/03 12:28:35;;;;;;;6.00;2.23;;;28.40;53.60;;;;;;5034274;28;20585;-76
2023/07/03 12:31:20;;;;;;;3.80;1.80;;;28.20;53.30;;;;;;5030685;28;20638;-77
2023/07/03 12:33:48;;;;;;;6.03;3.83;;;28.00;52.80;;;;;;5032803;28;20588;-77
2023/07/03 12:36:37;;;;;;;6.30;3.40;;;27.80;53.00;;;;;;5032415;28;20576;-76
2023/07/03 12:39:13;;;;;;;7.73;3.10;;;27.60;53.10;;;;;;5032653;28;20639;-76
2023/07/03 12:41:38;;;;;;;6.50;3.10;;;27.50;53.30;;;;;;5030232;28;21200;-76
2023/07/03 12:44:08;;;;;;;5.33;1.90;;;27.50;54.30;;;;;;5032609;28;20622;-76
2023/07/03 12:46:38;;;;;;;4.83;1.87;;;27.70;54.80;;;;;;5032232;28;20311;-76
2023/07/03 12:49:13;;;;;;;4.50;2.07;;;27.80;54.70;;;;;;5031184;28;20663;-77
2023/07/03 12:51:49;;;;;;;5.97;2.93;;;27.90;53.70;;;;;;5031193;28;20683;-77
2023/07/03 12:54:15;;;;;;;6.57;3.07;;;27.90;53.60;;;;;;5031190;28;20614;-77
2023/07/03 12:56:43;;;;;;;5.07;2.07;;;27.90;53.40;;;;;;4997923;28;20586;-76
2023/07/03 12:59:14;;;;;;;6.10;2.80;;;27.80;53.10;;;;;;5031002;28;20190;-76
2023/07/03 13:01:40;;;;;;;4.20;2.40;;;27.70;53.00;;;;;;5031337;28;20653;-77